Flight Briefing for CPX441

Departure Arrival
Salt Lake City International Airport (KSLC)
Click to view FAA NOTAMS
Chicago/Rockford International Airport (KRFD)
Click to view FAA NOTAMS
Departure Time Arrival Time
N/A N/A
Aircraft Distance
B757-200SF 1031nm
Departure METAR Arrival METAR
KSLC 151954Z 18023G31KT 10SM FEW040TCU FEW055 FEW095 10/M02 A2972 RMK AO2 PK WND 16033/1930 SLP047 TCU NW AND DSNT N-NE AND SE T01001017 KRFD 151954Z 29012KT 10SM SCT250 M09/M15 A3001 RMK AO2 SLP177 T10941150
Suggested Route
RUGGD1 OCS KURSE Q122 FOD BHAWK RFD


View recent IFR Routes data
Notes



Charts and Procedures

Charts for KSLC
No chart available
Charts for KRFD
No chart available

Ventusky Weather